createdAt,value
2023-04-25T00:01:21.258Z,28.95
2023-04-25T00:03:48.292Z,18.35
2023-04-25T00:06:15.428Z,20.75
2023-04-25T00:08:42.347Z,18.05
2023-04-25T00:11:08.985Z,20.60
2023-04-25T00:13:35.695Z,20.00
2023-04-25T00:16:04.096Z,24.23
2023-04-25T00:18:30.876Z,25.55
2023-04-25T00:20:57.568Z,25.42
2023-04-25T00:23:25.058Z,20.27
2023-04-25T00:25:51.826Z,15.60
2023-04-25T00:28:18.675Z,21.33
2023-04-25T00:30:45.468Z,23.70
2023-04-25T00:33:12.270Z,21.45
2023-04-25T00:35:39.536Z,16.40
2023-04-25T00:38:06.203Z,21.45
2023-04-25T00:40:32.997Z,16.45
2023-04-25T00:42:59.707Z,20.23
2023-04-25T00:45:29.394Z,18.20
2023-04-25T00:47:56.306Z,20.38
2023-04-25T00:50:23.494Z,20.33
2023-04-25T00:52:50.356Z,23.00
2023-04-25T00:55:17.034Z,22.52
2023-04-25T00:57:43.927Z,24.70
2023-04-25T01:00:12.112Z,26.20
2023-04-25T01:02:38.934Z,25.40
2023-04-25T01:05:06.248Z,18.55
2023-04-25T01:07:32.933Z,25.15
2023-04-25T01:09:59.565Z,26.77
2023-04-25T01:12:26.509Z,21.65
2023-04-25T01:14:53.236Z,23.73
2023-04-25T01:17:20.253Z,26.15
2023-04-25T01:19:49.237Z,27.58
2023-04-25T01:22:16.236Z,19.58
2023-04-25T01:24:43.058Z,25.88
2023-04-25T01:27:10.414Z,16.85
2023-04-25T01:29:37.318Z,22.10
2023-04-25T01:32:04.580Z,20.10
2023-04-25T01:34:32.678Z,20.67
2023-04-25T01:37:01.759Z,29.23
2023-04-25T01:39:28.717Z,23.27
2023-04-25T01:41:57.420Z,19.50
2023-04-25T01:44:24.473Z,21.70
2023-04-25T01:46:51.275Z,23.35
2023-04-25T01:49:18.056Z,23.15
2023-04-25T01:51:44.993Z,23.00
2023-04-25T01:54:12.434Z,22.13
2023-04-25T01:56:39.524Z,20.88
2023-04-25T01:59:06.739Z,23.35
2023-04-25T02:01:33.838Z,20.35
2023-04-25T02:04:00.843Z,21.98
2023-04-25T02:06:27.754Z,24.95
2023-04-25T02:08:54.523Z,25.15
2023-04-25T02:11:21.242Z,25.02
2023-04-25T02:13:48.084Z,24.20
2023-04-25T02:16:14.968Z,21.45
2023-04-25T02:18:41.782Z,22.05
2023-04-25T02:21:08.478Z,26.00
2023-04-25T02:23:35.212Z,25.40
2023-04-25T02:26:01.924Z,21.55
2023-04-25T02:28:28.597Z,24.45
2023-04-25T02:30:55.450Z,27.20
2023-04-25T02:33:22.316Z,22.17
2023-04-25T02:35:49.199Z,25.50
2023-04-25T02:38:16.090Z,26.40
2023-04-25T02:40:42.880Z,23.85
2023-04-25T02:43:09.557Z,25.08
2023-04-25T02:45:36.477Z,22.25
2023-04-25T02:48:04.201Z,22.08
2023-04-25T02:50:30.953Z,31.08
2023-04-25T02:52:57.617Z,23.77
2023-04-25T02:55:26.226Z,23.00
2023-04-25T02:57:56.428Z,23.98
2023-04-25T03:00:23.663Z,27.33
2023-04-25T03:02:50.432Z,23.92
2023-04-25T03:05:17.756Z,24.23
2023-04-25T03:07:45.733Z,25.75
2023-04-25T03:10:12.659Z,26.48
2023-04-25T03:12:39.365Z,27.92
2023-04-25T03:15:06.764Z,32.90
2023-04-25T03:17:33.528Z,22.10
2023-04-25T03:20:00.262Z,28.10
2023-04-25T03:22:26.988Z,28.13
2023-04-25T03:24:53.622Z,22.35
2023-04-25T03:27:20.470Z,23.75
2023-04-25T03:29:47.157Z,27.42
2023-04-25T03:32:14.025Z,25.70
2023-04-25T03:34:41.158Z,22.58
2023-04-25T03:37:07.926Z,23.67
2023-04-25T03:39:34.644Z,30.83
2023-04-25T03:42:02.033Z,29.20
2023-04-25T03:44:28.688Z,23.73
2023-04-25T03:46:55.418Z,27.83
2023-04-25T03:49:22.173Z,29.55
2023-04-25T03:51:49.118Z,26.20
2023-04-25T03:54:16.052Z,33.17
2023-04-25T03:56:42.943Z,25.77
2023-04-25T03:59:09.616Z,26.30
2023-04-25T04:01:36.404Z,27.70
2023-04-25T04:04:03.664Z,34.67
2023-04-25T04:06:30.646Z,33.10
2023-04-25T04:08:57.752Z,28.15
2023-04-25T04:11:24.543Z,26.98
2023-04-25T04:13:51.615Z,30.80
2023-04-25T04:16:19.870Z,24.48
2023-04-25T04:18:47.032Z,23.77
2023-04-25T04:21:13.783Z,23.42
2023-04-25T04:23:40.754Z,23.58
2023-04-25T04:26:09.674Z,23.33
2023-04-25T04:28:36.771Z,21.55
2023-04-25T04:31:04.911Z,25.63
2023-04-25T04:33:32.089Z,24.27
2023-04-25T04:35:58.967Z,24.45
2023-04-25T04:38:26.445Z,23.65
2023-04-25T04:40:53.503Z,24.25
2023-04-25T04:43:20.242Z,24.48
2023-04-25T04:45:46.937Z,21.20
2023-04-25T04:48:15.117Z,19.08
2023-04-25T04:50:42.156Z,24.20
2023-04-25T04:53:09.042Z,22.63
2023-04-25T04:55:35.801Z,20.42
2023-04-25T04:58:02.515Z,19.63
2023-04-25T05:00:30.503Z,19.95
2023-04-25T05:02:57.884Z,22.45
2023-04-25T05:05:24.847Z,22.00
2023-04-25T05:07:51.925Z,22.05
2023-04-25T05:10:19.698Z,21.90
2023-04-25T05:12:46.515Z,26.15
2023-04-25T05:15:13.329Z,23.27
2023-04-25T05:17:40.240Z,35.20
2023-04-25T05:20:10.615Z,22.20
2023-04-25T05:22:37.313Z,30.15
2023-04-25T05:25:04.759Z,18.73
2023-04-25T05:27:31.425Z,26.42
2023-04-25T05:29:58.128Z,31.95
2023-04-25T05:32:26.214Z,22.52
2023-04-25T05:34:53.292Z,20.08
2023-04-25T05:37:19.992Z,22.48
2023-04-25T05:39:46.654Z,16.52
2023-04-25T05:42:13.334Z,29.35
2023-04-25T05:44:40.388Z,19.35
2023-04-25T05:47:07.391Z,25.25
2023-04-25T05:49:34.658Z,20.58
2023-04-25T05:52:01.511Z,22.55
2023-04-25T05:54:28.141Z,19.58
2023-04-25T05:56:54.754Z,19.77
2023-04-25T05:59:21.448Z,25.70
2023-04-25T06:01:48.193Z,24.48
2023-04-25T06:04:14.952Z,24.00
2023-04-25T06:06:41.843Z,24.73
2023-04-25T06:09:08.510Z,21.50
2023-04-25T06:11:35.260Z,24.50
2023-04-25T06:14:02.065Z,18.58
2023-04-25T06:16:28.740Z,25.92
2023-04-25T06:18:55.449Z,27.75
2023-04-25T06:21:22.087Z,21.88
2023-04-25T06:23:49.242Z,30.63
2023-04-25T06:26:16.658Z,20.42
2023-04-25T06:28:43.346Z,22.40
2023-04-25T06:31:10.161Z,22.02
2023-04-25T06:33:36.953Z,23.80
2023-04-25T06:36:03.853Z,20.50
2023-04-25T06:38:30.663Z,16.40
2023-04-25T06:40:57.328Z,26.90
2023-04-25T06:43:24.029Z,22.35
2023-04-25T06:45:50.719Z,20.88
2023-04-25T06:48:17.382Z,19.90
2023-04-25T06:50:44.081Z,22.55
2023-04-25T06:53:12.536Z,18.77
2023-04-25T06:55:39.734Z,26.13
2023-04-25T06:58:06.414Z,18.98
2023-04-25T07:00:34.648Z,16.13
2023-04-25T07:03:01.804Z,21.52
2023-04-25T07:05:28.664Z,20.55
2023-04-25T07:07:55.431Z,19.42
2023-04-25T07:10:22.482Z,21.38
2023-04-25T07:12:49.228Z,20.02
2023-04-25T07:15:15.945Z,15.50
2023-04-25T07:17:42.684Z,18.05
2023-04-25T07:20:10.453Z,20.33
2023-04-25T07:22:37.205Z,17.67
2023-04-25T07:25:05.340Z,16.90
2023-04-25T07:27:32.374Z,17.92
2023-04-25T07:29:59.109Z,19.55
2023-04-25T07:32:26.617Z,21.70
2023-04-25T07:34:53.531Z,20.95
2023-04-25T07:37:20.180Z,20.25
2023-04-25T07:39:49.646Z,22.63
2023-04-25T07:42:16.398Z,16.33
2023-04-25T07:44:43.439Z,17.05
2023-04-25T07:47:11.425Z,17.75
2023-04-25T07:49:38.641Z,13.95
2023-04-25T07:52:08.974Z,16.35
2023-04-25T07:54:35.639Z,19.70
2023-04-25T07:57:03.466Z,14.90
2023-04-25T07:59:30.427Z,19.20
2023-04-25T08:01:58.568Z,15.65
2023-04-25T08:04:26.899Z,18.88
2023-04-25T08:06:54.876Z,19.33
2023-04-25T08:09:22.052Z,18.85
2023-04-25T08:11:49.028Z,22.30
2023-04-25T08:14:15.808Z,22.13
2023-04-25T08:16:43.206Z,17.15
2023-04-25T08:19:10.637Z,16.33
2023-04-25T08:21:37.350Z,21.42
2023-04-25T08:24:04.222Z,18.80
2023-04-25T08:26:31.156Z,19.88
2023-04-25T08:28:57.838Z,18.13
2023-04-25T08:31:24.595Z,20.85
2023-04-25T08:33:53.048Z,17.15
2023-04-25T08:36:31.566Z,18.45
2023-04-25T08:39:05.000Z,18.67
2023-04-25T08:41:31.805Z,18.55
2023-04-25T08:44:01.435Z,19.80
2023-04-25T08:46:28.331Z,18.58
2023-04-25T08:48:59.401Z,19.67
2023-04-25T08:51:26.936Z,17.08
2023-04-25T08:53:57.524Z,15.82
2023-04-25T08:56:25.851Z,16.02
2023-04-25T08:58:53.248Z,18.77
2023-04-25T09:01:20.557Z,17.55
2023-04-25T09:03:48.595Z,20.52
2023-04-25T09:06:17.283Z,17.75
2023-04-25T09:08:43.949Z,16.02
2023-04-25T09:11:10.602Z,15.98
2023-04-25T09:13:37.284Z,14.50
2023-04-25T09:16:04.091Z,17.67
2023-04-25T09:18:35.605Z,24.17
2023-04-25T09:21:14.296Z,14.50
2023-04-25T09:23:47.189Z,19.13
2023-04-25T09:26:19.798Z,17.58
2023-04-25T09:28:48.978Z,14.40
2023-04-25T09:31:25.742Z,16.65
2023-04-25T09:34:01.105Z,17.70
2023-04-25T09:36:28.992Z,20.77
2023-04-25T09:38:57.039Z,22.55
2023-04-25T09:41:25.285Z,38.60
2023-04-25T09:43:52.190Z,29.27
2023-04-25T09:46:22.336Z,23.83
2023-04-25T09:48:51.479Z,21.25
2023-04-25T09:51:18.131Z,21.58
2023-04-25T09:53:51.885Z,18.80
2023-04-25T09:56:19.946Z,20.17
2023-04-25T09:58:48.591Z,25.58
2023-04-25T10:01:17.189Z,19.85
2023-04-25T10:03:44.681Z,15.10
2023-04-25T10:06:19.850Z,13.27
2023-04-25T10:08:49.684Z,19.23
2023-04-25T10:11:17.555Z,15.70
2023-04-25T10:13:44.270Z,22.45
2023-04-25T10:16:11.381Z,14.18
2023-04-25T10:18:38.611Z,15.10
2023-04-25T10:21:06.154Z,18.33
2023-04-25T10:23:33.209Z,15.23
2023-04-25T10:26:00.063Z,18.77
2023-04-25T10:28:26.713Z,13.48
2023-04-25T10:31:00.491Z,12.82
2023-04-25T10:33:40.972Z,15.52
2023-04-25T10:36:16.020Z,14.77
2023-04-25T10:43:39.613Z,13.18
2023-04-25T10:46:15.910Z,14.80
2023-04-25T10:48:52.678Z,13.73
2023-04-25T10:51:22.366Z,13.00
2023-04-25T10:53:58.517Z,15.40
2023-04-25T10:56:48.394Z,14.50
2023-04-25T10:59:19.772Z,14.77
2023-04-25T11:01:48.779Z,14.57
2023-04-25T11:04:26.559Z,14.05
2023-04-25T11:07:06.435Z,20.30
2023-04-25T11:09:35.348Z,16.80
2023-04-25T11:12:02.330Z,12.35
2023-04-25T11:14:29.088Z,17.77
2023-04-25T11:17:00.725Z,14.27
2023-04-25T11:19:29.087Z,13.18
2023-04-25T11:21:59.656Z,13.07
2023-04-25T11:24:33.662Z,13.80
2023-04-25T11:27:00.912Z,16.20
2023-04-25T11:29:28.565Z,17.70
2023-04-25T11:31:59.007Z,13.55
2023-04-25T11:34:26.608Z,10.57
2023-04-25T11:36:54.298Z,13.23
2023-04-25T11:39:21.758Z,14.35
2023-04-25T11:41:48.830Z,14.73
2023-04-25T11:44:20.078Z,16.67
2023-04-25T11:46:47.805Z,13.82
2023-04-25T11:49:15.934Z,11.15
2023-04-25T11:51:45.016Z,15.07
2023-04-25T11:54:12.837Z,16.65
2023-04-25T11:56:43.551Z,13.35
2023-04-25T11:59:10.617Z,17.85
2023-04-25T12:01:40.178Z,11.40
2023-04-25T12:04:18.620Z,11.77
2023-04-25T12:06:49.705Z,11.02
2023-04-25T12:09:22.589Z,11.65
2023-04-25T12:12:04.894Z,12.48
2023-04-25T12:14:33.617Z,9.82
2023-04-25T12:17:01.779Z,10.63
2023-04-25T12:19:41.680Z,11.00
2023-04-25T12:22:22.814Z,10.65
2023-04-25T12:24:49.505Z,12.75
2023-04-25T12:27:17.586Z,14.95
2023-04-25T12:29:55.671Z,11.00
2023-04-25T12:34:49.735Z,12.85
2023-04-25T12:37:16.852Z,12.00
2023-04-25T12:39:43.580Z,13.00
2023-04-25T12:42:13.040Z,12.57
2023-04-25T12:44:40.474Z,16.48
2023-04-25T12:47:07.227Z,10.10
2023-04-25T12:49:34.101Z,12.93
2023-04-25T12:52:00.838Z,13.57
2023-04-25T12:54:27.586Z,17.63
2023-04-25T12:56:54.407Z,10.75
2023-04-25T12:59:22.280Z,12.93
2023-04-25T13:01:49.580Z,12.18
2023-04-25T13:04:17.265Z,11.45
2023-04-25T13:06:44.421Z,13.20
2023-04-25T13:09:13.619Z,14.07
2023-04-25T13:11:41.738Z,13.45
2023-04-25T13:14:08.900Z,15.80
2023-04-25T13:16:35.861Z,16.20
2023-04-25T13:19:02.644Z,16.55
2023-04-25T13:21:33.296Z,16.60
2023-04-25T13:24:00.198Z,13.45
2023-04-25T13:26:27.393Z,12.65
2023-04-25T13:28:54.034Z,16.80
2023-04-25T13:31:20.825Z,15.05
2023-04-25T13:33:47.581Z,16.05
2023-04-25T13:36:14.306Z,16.70
2023-04-25T13:38:43.266Z,18.77
2023-04-25T13:41:12.237Z,18.58
2023-04-25T13:43:39.181Z,17.92
2023-04-25T13:46:06.486Z,17.63
2023-04-25T13:48:33.194Z,17.08
2023-04-25T13:50:59.809Z,21.17
2023-04-25T13:53:45.105Z,20.88
2023-04-25T13:56:12.665Z,20.00
2023-04-25T13:58:39.458Z,19.58
2023-04-25T14:01:06.161Z,18.05
2023-04-25T14:03:33.134Z,16.60
2023-04-25T14:05:59.933Z,22.92
2023-04-25T14:08:26.817Z,23.05
2023-04-25T14:10:53.421Z,23.08
2023-04-25T14:13:20.098Z,22.45
2023-04-25T14:15:46.849Z,21.63
2023-04-25T14:18:13.760Z,22.33
2023-04-25T14:20:40.489Z,21.60
2023-04-25T14:23:07.259Z,20.63
2023-04-25T14:25:33.919Z,23.98
2023-04-25T14:28:00.587Z,21.35
2023-04-25T14:30:27.434Z,21.77
2023-04-25T14:32:54.944Z,20.33
2023-04-25T14:35:21.704Z,23.27
2023-04-25T14:37:48.657Z,19.67
2023-04-25T14:40:16.434Z,20.75
2023-04-25T14:42:43.476Z,21.38
2023-04-25T14:45:10.560Z,18.80
2023-04-25T14:47:38.223Z,20.35
2023-04-25T14:50:05.762Z,29.25
2023-04-25T14:52:32.483Z,26.58
2023-04-25T14:55:01.453Z,25.02
2023-04-25T14:57:28.337Z,24.23
2023-04-25T14:59:55.413Z,32.58
2023-04-25T15:02:22.509Z,28.52
2023-04-25T15:04:49.422Z,19.63
2023-04-25T15:07:18.235Z,16.95
2023-04-25T15:09:45.223Z,16.25
2023-04-25T15:12:12.233Z,12.10
2023-04-25T15:14:38.897Z,14.23
2023-04-25T15:17:06.216Z,13.65
2023-04-25T15:19:33.130Z,13.13
2023-04-25T15:22:02.433Z,18.15
2023-04-25T15:24:30.554Z,19.23
2023-04-25T15:26:57.665Z,11.73
2023-04-25T15:29:24.414Z,11.50
2023-04-25T15:31:51.404Z,22.45
2023-04-25T15:34:18.166Z,18.90
2023-04-25T15:36:44.928Z,16.75
2023-04-25T15:39:11.622Z,21.85
2023-04-25T15:41:38.289Z,12.98
2023-04-25T15:44:05.408Z,20.65
2023-04-25T15:46:32.256Z,18.67
2023-04-25T15:48:58.982Z,20.58
2023-04-25T15:51:25.772Z,17.92
2023-04-25T15:53:52.779Z,16.65
2023-04-25T15:56:19.742Z,12.70
2023-04-25T15:58:46.424Z,12.02
2023-04-25T16:01:13.744Z,16.30
2023-04-25T16:03:40.504Z,12.55
2023-04-25T16:06:08.197Z,12.90
2023-04-25T16:08:35.966Z,19.67
2023-04-25T16:11:03.362Z,12.88
2023-04-25T16:13:30.257Z,14.02
2023-04-25T16:15:57.119Z,12.23
2023-04-25T16:18:24.069Z,19.08
2023-04-25T16:20:50.802Z,16.77
2023-04-25T16:23:18.269Z,12.07
2023-04-25T16:25:45.283Z,13.20
2023-04-25T16:28:11.939Z,12.95
2023-04-25T16:30:38.734Z,13.75
2023-04-25T16:33:05.456Z,16.90
2023-04-25T16:35:32.616Z,12.50
2023-04-25T16:37:59.445Z,15.38
2023-04-25T16:40:26.819Z,18.73
2023-04-25T16:42:53.490Z,16.25
2023-04-25T16:45:21.196Z,13.77
2023-04-25T16:47:47.875Z,10.60
2023-04-25T16:50:15.299Z,11.55
2023-04-25T16:52:43.820Z,11.38
2023-04-25T16:57:37.895Z,11.57
2023-04-25T17:00:06.571Z,14.57
2023-04-25T17:02:33.457Z,20.25
2023-04-25T17:05:00.293Z,24.38
2023-04-25T17:07:28.005Z,14.80
2023-04-25T17:09:54.703Z,18.27
2023-04-25T17:12:21.825Z,13.45
2023-04-25T17:14:49.667Z,15.15
2023-04-25T17:17:18.758Z,14.23
2023-04-25T17:22:12.695Z,22.58
2023-04-25T17:24:40.766Z,15.27
2023-04-25T17:27:07.735Z,12.85
2023-04-25T17:29:35.293Z,14.18
2023-04-25T17:32:02.115Z,15.98
2023-04-25T17:34:29.123Z,20.10
2023-04-25T17:36:55.905Z,17.42
2023-04-25T17:39:22.645Z,19.10
2023-04-25T17:41:49.369Z,18.63
2023-04-25T17:44:16.070Z,22.88
2023-04-25T17:46:42.837Z,23.10
2023-04-25T17:49:09.681Z,23.30
2023-04-25T17:51:36.326Z,21.63
2023-04-25T17:54:03.094Z,22.92
2023-04-25T17:56:30.652Z,20.70
2023-04-25T17:58:57.576Z,21.85
2023-04-25T18:01:24.275Z,22.77
2023-04-25T18:03:53.120Z,21.15
2023-04-25T18:06:19.909Z,23.15
2023-04-25T18:08:47.213Z,25.30
2023-04-25T18:11:14.152Z,34.78
2023-04-25T18:13:41.229Z,30.60
2023-04-25T18:16:08.150Z,29.35
2023-04-25T18:18:48.621Z,34.50
2023-04-25T18:21:15.397Z,34.72
2023-04-25T18:23:42.113Z,30.98
2023-04-25T18:26:08.795Z,32.00
2023-04-25T18:28:35.693Z,30.70
2023-04-25T18:31:02.472Z,31.58
2023-04-25T18:33:29.150Z,29.08
2023-04-25T18:35:59.643Z,31.05
2023-04-25T18:41:08.316Z,27.83
2023-04-25T18:43:44.548Z,32.22
2023-04-25T18:46:11.501Z,27.15
2023-04-25T18:48:38.249Z,28.15
2023-04-25T18:51:05.650Z,32.33
2023-04-25T18:53:32.624Z,28.35
2023-04-25T18:55:59.467Z,26.52
2023-04-25T18:58:26.408Z,28.45
2023-04-25T19:00:53.559Z,39.20
2023-04-25T19:03:21.961Z,43.78
2023-04-25T19:05:48.788Z,42.40
2023-04-25T19:08:15.431Z,48.05
2023-04-25T19:10:42.119Z,46.83
2023-04-25T19:13:08.778Z,47.08
2023-04-25T19:15:35.815Z,42.08
2023-04-25T19:18:02.902Z,46.22
2023-04-25T19:20:29.614Z,44.72
2023-04-25T19:22:56.890Z,50.85
2023-04-25T19:25:24.996Z,50.65
2023-04-25T19:27:52.017Z,44.33
2023-04-25T19:30:19.364Z,43.95
2023-04-25T19:32:46.237Z,43.03
2023-04-25T19:35:13.510Z,38.92
2023-04-25T19:37:46.032Z,35.05
2023-04-25T19:40:14.642Z,36.22
2023-04-25T19:42:41.308Z,34.15
2023-04-25T19:45:08.668Z,38.20
2023-04-25T19:47:38.630Z,37.83
2023-04-25T19:50:09.587Z,38.42
2023-04-25T19:52:37.183Z,37.95
2023-04-25T19:55:05.117Z,36.67
2023-04-25T19:57:36.944Z,38.15
2023-04-25T20:00:12.951Z,42.97
2023-04-25T20:02:40.813Z,42.03
2023-04-25T20:05:08.768Z,40.50
2023-04-25T20:07:35.881Z,39.30
2023-04-25T20:10:04.076Z,39.95
2023-04-25T20:12:30.862Z,41.47
2023-04-25T20:14:58.521Z,41.25
2023-04-25T20:17:25.932Z,39.97
2023-04-25T20:19:52.977Z,37.28
2023-04-25T20:22:19.776Z,41.33
2023-04-25T20:24:46.768Z,40.00
2023-04-25T20:27:13.474Z,51.28
2023-04-25T20:29:42.055Z,47.88
2023-04-25T20:32:09.692Z,42.78
2023-04-25T20:34:36.647Z,39.83
2023-04-25T20:37:03.602Z,45.50
2023-04-25T20:39:30.618Z,44.30
2023-04-25T20:41:57.754Z,45.42
2023-04-25T20:44:25.308Z,45.50
2023-04-25T20:46:52.165Z,41.58
2023-04-25T20:49:19.179Z,49.65
2023-04-25T20:51:45.971Z,38.25
2023-04-25T20:54:13.514Z,37.72
2023-04-25T20:56:40.366Z,35.95
2023-04-25T20:59:07.118Z,32.35
2023-04-25T21:01:34.594Z,30.17
2023-04-25T21:04:01.909Z,27.30
2023-04-25T21:06:29.611Z,31.10
2023-04-25T21:08:56.336Z,30.27
2023-04-25T21:11:23.634Z,31.98
2023-04-25T21:13:50.759Z,27.60
2023-04-25T21:16:17.484Z,30.88
2023-04-25T21:18:44.188Z,34.92
2023-04-25T21:21:10.968Z,33.22
2023-04-25T21:23:37.635Z,37.17
2023-04-25T21:26:04.307Z,35.97
2023-04-25T21:28:30.909Z,36.00
2023-04-25T21:30:57.615Z,43.53
2023-04-25T21:33:24.345Z,38.10
2023-04-25T21:35:51.003Z,42.22
2023-04-25T21:38:17.690Z,41.67
2023-04-25T21:40:44.380Z,41.38
2023-04-25T21:43:11.070Z,41.88
2023-04-25T21:45:51.407Z,40.92
2023-04-25T21:48:24.507Z,35.78
2023-04-25T21:50:51.201Z,35.20
2023-04-25T21:53:18.011Z,32.55
2023-04-25T21:55:44.981Z,38.40
2023-04-25T21:58:11.662Z,31.15
2023-04-25T22:00:39.691Z,25.30
2023-04-25T22:03:06.482Z,27.23
2023-04-25T22:05:34.916Z,27.15
2023-04-25T22:08:03.476Z,33.55
2023-04-25T22:10:30.312Z,25.73
2023-04-25T22:12:58.412Z,24.05
2023-04-25T22:15:25.479Z,28.52
2023-04-25T22:17:55.191Z,28.27
2023-04-25T22:20:26.169Z,25.33
2023-04-25T22:22:54.614Z,29.75
2023-04-25T22:25:22.182Z,25.48
2023-04-25T22:27:49.359Z,24.55
2023-04-25T22:30:16.078Z,32.15
2023-04-25T22:32:43.368Z,24.95
2023-04-25T22:35:10.748Z,25.65
2023-04-25T22:37:37.802Z,26.58
2023-04-25T22:40:09.280Z,28.65
2023-04-25T22:42:44.825Z,34.67
2023-04-25T22:45:12.353Z,27.65
2023-04-25T22:47:40.120Z,29.27
2023-04-25T22:50:07.920Z,31.58
2023-04-25T22:52:34.899Z,27.67
2023-04-25T22:55:04.754Z,30.02
2023-04-25T22:57:31.433Z,28.02
2023-04-25T22:59:58.166Z,35.92
2023-04-25T23:02:25.112Z,30.20
2023-04-25T23:04:53.301Z,25.60
2023-04-25T23:07:20.784Z,28.05
2023-04-25T23:09:47.478Z,24.52
2023-04-25T23:12:14.168Z,25.88
2023-04-25T23:14:40.811Z,25.52
2023-04-25T23:17:07.854Z,23.15
2023-04-25T23:19:34.574Z,25.63
2023-04-25T23:22:01.938Z,23.27
2023-04-25T23:24:28.646Z,24.35
2023-04-25T23:26:55.306Z,20.75
2023-04-25T23:29:21.971Z,24.45
2023-04-25T23:31:48.615Z,30.95
2023-04-25T23:34:15.238Z,32.22
2023-04-25T23:36:41.854Z,23.48
2023-04-25T23:39:10.508Z,22.38
2023-04-25T23:41:37.288Z,18.77
2023-04-25T23:44:07.711Z,14.77
2023-04-25T23:46:35.235Z,18.95
2023-04-25T23:49:04.534Z,17.20
2023-04-25T23:53:58.975Z,13.50
2023-04-25T23:56:25.827Z,11.35
2023-04-25T23:58:52.942Z,18.13
